Time;durP1;ratioP1;P1;durP2;ratioP2;P2;SDS_P1;SDS_P2;PMS_P1;PMS_P2;Temp;Humidity;BMP_temperature;BMP_pressure;BME280_temperature;BME280_humidity;BME280_pressure;Samples;Min_cycle;Max_cycle;Signal;HPM_P1;HPM_P2
2022/03/03 00:00:11;;;;;;;54.97;20.02;;;;;;;-148.23;100.00;61223.13;4990734;28;20030;-69
2022/03/03 00:02:36;;;;;;;49.85;18.13;;;;;;;-148.23;100.00;61223.13;4959614;28;20471;-69
2022/03/03 00:05:03;;;;;;;62.33;20.30;;;;;;;-148.23;100.00;61223.13;4993430;28;20049;-69
2022/03/03 00:07:28;;;;;;;60.42;17.58;;;;;;;-148.23;100.00;61223.13;4977412;28;20026;-69
2022/03/03 00:09:54;;;;;;;51.35;18.63;;;;;;;-148.23;100.00;61223.13;4977535;28;20392;-69
2022/03/03 00:12:20;;;;;;;61.42;18.85;;;;;;;-148.23;100.00;61223.13;4992995;28;20682;-69
2022/03/03 00:14:45;;;;;;;53.10;18.55;;;;;;;-148.23;100.00;61223.13;4996089;28;20111;-69
2022/03/03 00:17:11;;;;;;;51.65;18.67;;;;;;;-148.23;100.00;61223.13;4994129;28;20030;-69
2022/03/03 00:19:37;;;;;;;55.78;18.30;;;;;;;-148.23;100.00;61223.13;4983222;28;20448;-69
2022/03/03 00:22:02;;;;;;;45.80;17.40;;;;;;;-148.23;100.00;61223.13;4976362;28;20036;-69
2022/03/03 00:24:27;;;;;;;57.10;18.92;;;;;;;-148.23;100.00;61223.13;4993999;28;20058;-68
2022/03/03 00:26:53;;;;;;;54.00;17.55;;;;;;;-148.23;100.00;61223.13;4979444;28;20037;-69
2022/03/03 00:29:18;;;;;;;54.30;18.70;;;;;;;-148.23;100.00;61223.13;4999961;28;20740;-69
2022/03/03 00:31:43;;;;;;;46.55;17.10;;;;;;;-148.23;100.00;61223.13;4980747;28;20080;-69
2022/03/03 00:34:09;;;;;;;48.15;16.90;;;;;;;-148.23;100.00;61223.13;4986145;28;20033;-69
2022/03/03 00:36:34;;;;;;;46.58;18.33;;;;;;;-148.23;100.00;61223.13;4981067;28;20120;-69
2022/03/03 00:39:00;;;;;;;58.75;18.73;;;;;;;-148.23;100.00;61223.13;4998751;28;20129;-69
2022/03/03 00:41:25;;;;;;;52.95;17.88;;;;;;;-148.23;100.00;61223.13;4977612;28;20121;-69
2022/03/03 00:43:51;;;;;;;49.50;18.55;;;;;;;-148.23;100.00;61223.13;4983203;28;20049;-69
2022/03/03 00:46:16;;;;;;;58.58;18.20;;;;;;;-148.23;100.00;61223.13;4997669;28;20077;-69
2022/03/03 00:48:41;;;;;;;57.00;18.70;;;;;;;-148.23;100.00;61223.13;4983033;28;20076;-69
2022/03/03 00:51:07;;;;;;;47.30;18.35;;;;;;;-148.23;100.00;61223.13;4981915;28;20058;-69
2022/03/03 00:53:37;;;;;;;55.22;18.60;;;;;;;-148.23;100.00;61223.13;5000645;22;20469;-68
2022/03/03 00:56:03;;;;;;;53.15;19.75;;;;;;;-148.23;100.00;61223.13;4977909;28;20046;-69
2022/03/03 00:58:28;;;;;;;55.55;18.30;;;;;;;-148.23;100.00;61223.13;4979381;28;20451;-69
2022/03/03 01:00:54;;;;;;;48.85;18.83;;;;;;;-148.23;100.00;61223.13;4981203;28;20033;-68
2022/03/03 01:03:19;;;;;;;54.08;18.30;;;;;;;-148.23;100.00;61223.13;4979616;28;20043;-69
2022/03/03 01:05:44;;;;;;;59.88;18.85;;;;;;;-148.23;100.00;61223.13;4982183;28;21320;-69
2022/03/03 01:08:10;;;;;;;56.28;20.10;;;;;;;-148.23;100.00;61223.13;4982492;28;22233;-69
2022/03/03 01:10:39;;;;;;;50.75;19.27;;;;;;;-148.23;100.00;61223.13;4982091;28;20066;-69
2022/03/03 01:13:05;;;;;;;50.20;18.10;;;;;;;-148.23;100.00;61223.13;4978835;28;20073;-69
2022/03/03 01:15:30;;;;;;;50.55;18.67;;;;;;;-148.23;100.00;61223.13;4981874;28;20121;-69
2022/03/03 01:17:56;;;;;;;49.20;18.63;;;;;;;-148.23;100.00;61223.13;4983830;28;20030;-69
2022/03/03 01:20:21;;;;;;;55.33;18.98;;;;;;;-148.23;100.00;61223.13;4981850;28;20489;-70
2022/03/03 01:22:47;;;;;;;50.22;18.95;;;;;;;-148.23;100.00;61223.13;4980068;28;20038;-69
2022/03/03 01:25:12;;;;;;;54.70;18.38;;;;;;;-148.23;100.00;61223.13;4980555;28;20486;-69
2022/03/03 01:27:38;;;;;;;49.78;17.67;;;;;;;-148.23;100.00;61223.13;4983724;28;20042;-69
2022/03/03 01:30:04;;;;;;;48.00;18.10;;;;;;;-148.23;100.00;61223.13;4983015;28;20057;-69
2022/03/03 01:32:30;;;;;;;45.67;17.58;;;;;;;-148.23;100.00;61223.13;4984829;28;20613;-69
2022/03/03 01:34:55;;;;;;;48.72;18.45;;;;;;;-148.23;100.00;61223.13;4968582;28;20034;-70
2022/03/03 01:37:21;;;;;;;43.85;16.25;;;;;;;-148.23;100.00;61223.13;4983272;28;20057;-71
2022/03/03 01:39:46;;;;;;;45.47;16.52;;;;;;;-148.23;100.00;61223.13;4969258;28;20034;-69
2022/03/03 01:42:14;;;;;;;46.15;17.10;;;;;;;-148.23;100.00;61223.13;4981006;28;20056;-69
2022/03/03 01:44:44;;;;;;;43.72;17.85;;;;;;;-148.23;100.00;61223.13;4984312;28;20496;-69
2022/03/03 01:47:21;;;;;;;42.70;16.25;;;;;;;-148.23;100.00;61223.13;4982961;28;20029;-69
2022/03/03 01:49:48;;;;;;;50.13;18.30;;;;;;;-148.23;100.00;61223.13;4983954;28;20433;-69
2022/03/03 01:52:13;;;;;;;55.17;18.55;;;;;;;-148.23;100.00;61223.13;4979927;28;20116;-69
2022/03/03 01:54:39;;;;;;;46.15;17.83;;;;;;;-148.23;100.00;61223.13;4985196;28;20484;-69
2022/03/03 01:57:05;;;;;;;49.90;18.33;;;;;;;-148.23;100.00;61223.13;4983934;28;20109;-69
2022/03/03 01:59:31;;;;;;;49.72;17.48;;;;;;;-148.23;100.00;61223.13;4963490;28;20031;-69
2022/03/03 02:01:56;;;;;;;49.13;17.58;;;;;;;-148.23;100.00;61223.13;4982764;28;20057;-69
2022/03/03 02:04:22;;;;;;;57.55;19.85;;;;;;;-148.23;100.00;61223.13;4967838;28;20026;-70
2022/03/03 02:06:47;;;;;;;54.90;17.75;;;;;;;-148.23;100.00;61223.13;4967666;28;20030;-69
2022/03/03 02:09:12;;;;;;;55.75;18.67;;;;;;;-148.23;100.00;61223.13;4984703;28;20464;-70
2022/03/03 02:11:38;;;;;;;50.60;18.10;;;;;;;-148.23;100.00;61223.13;4966156;28;20595;-71
2022/03/03 02:14:04;;;;;;;48.78;18.20;;;;;;;-148.23;100.00;61223.13;4983545;28;20485;-69
2022/03/03 02:16:30;;;;;;;53.78;18.73;;;;;;;-148.23;100.00;61223.13;4968936;28;20026;-71
2022/03/03 02:18:55;;;;;;;44.70;17.95;;;;;;;-148.23;100.00;61223.13;4980529;28;20542;-71
2022/03/03 02:21:20;;;;;;;48.53;18.33;;;;;;;-148.23;100.00;61223.13;4968106;28;20576;-69
2022/03/03 02:23:46;;;;;;;42.08;17.80;;;;;;;-148.23;100.00;61223.13;4968178;28;20037;-69
2022/03/03 02:26:21;;;;;;;52.80;17.98;;;;;;;-148.23;100.00;61223.13;4966621;28;20030;-69
2022/03/03 02:28:48;;;;;;;49.03;17.48;;;;;;;-148.23;100.00;61223.13;4984614;28;20057;-69
2022/03/03 02:31:13;;;;;;;47.85;17.48;;;;;;;-148.23;100.00;61223.13;4994446;28;20407;-69
2022/03/03 02:33:39;;;;;;;56.95;18.90;;;;;;;-148.23;100.00;61223.13;4984094;28;20097;-69
2022/03/03 02:36:21;;;;;;;45.22;16.88;;;;;;;-148.23;100.00;61223.13;4980625;28;20046;-69
2022/03/03 02:38:47;;;;;;;44.05;17.70;;;;;;;-148.23;100.00;61223.13;4980228;28;20030;-69
2022/03/03 02:41:12;;;;;;;48.97;17.45;;;;;;;-148.23;100.00;61223.13;4981429;28;20057;-69
2022/03/03 02:43:37;;;;;;;45.55;17.95;;;;;;;-148.23;100.00;61223.13;4978749;28;20481;-69
2022/03/03 02:46:05;;;;;;;46.63;17.88;;;;;;;-148.23;100.00;61223.13;4966635;28;20062;-69
2022/03/03 02:48:30;;;;;;;53.75;18.73;;;;;;;-148.23;100.00;61223.13;4982274;28;20077;-69
2022/03/03 02:50:55;;;;;;;50.20;18.58;;;;;;;-148.23;100.00;61223.13;4985357;28;20121;-69
2022/03/03 02:53:21;;;;;;;57.00;20.38;;;;;;;-148.23;100.00;61223.13;4981128;28;20040;-69
2022/03/03 02:55:46;;;;;;;43.50;18.20;;;;;;;-148.23;100.00;61223.13;4983182;28;20072;-69
2022/03/03 02:58:12;;;;;;;42.53;17.30;;;;;;;-148.23;100.00;61223.13;4981458;28;20032;-69
2022/03/03 03:00:43;;;;;;;53.70;17.17;;;;;;;-148.23;100.00;61223.13;4983650;28;20365;-69
2022/03/03 03:03:09;;;;;;;51.88;17.90;;;;;;;-148.23;100.00;61223.13;4978958;28;20025;-69
2022/03/03 03:05:34;;;;;;;48.05;18.05;;;;;;;-148.23;100.00;61223.13;4983263;28;20837;-69
2022/03/03 03:08:00;;;;;;;53.78;19.27;;;;;;;-148.23;100.00;61223.13;4981210;28;20155;-69
2022/03/03 03:10:25;;;;;;;56.05;19.23;;;;;;;-148.23;100.00;61223.13;4980656;28;20030;-69
2022/03/03 03:12:51;;;;;;;55.50;20.08;;;;;;;-148.23;100.00;61223.13;4982258;28;20090;-69
2022/03/03 03:15:17;;;;;;;52.88;19.45;;;;;;;-148.23;100.00;61223.13;4980605;28;20049;-69
2022/03/03 03:17:42;;;;;;;55.50;19.20;;;;;;;-148.23;100.00;61223.13;4982663;28;20042;-69
2022/03/03 03:20:08;;;;;;;49.33;17.75;;;;;;;-148.23;100.00;61223.13;4981347;28;20078;-69
2022/03/03 03:22:34;;;;;;;56.70;17.50;;;;;;;-148.23;100.00;61223.13;4967144;28;20057;-69
2022/03/03 03:24:59;;;;;;;53.03;19.67;;;;;;;-148.23;100.00;61223.13;4982330;28;20034;-69
2022/03/03 03:27:25;;;;;;;46.58;18.38;;;;;;;-148.23;100.00;61223.13;4982986;28;20322;-69
2022/03/03 03:29:50;;;;;;;54.28;18.67;;;;;;;-148.23;100.00;61223.13;4978584;28;20086;-69
2022/03/03 03:32:15;;;;;;;46.78;18.33;;;;;;;-148.23;100.00;61223.13;4980782;28;20026;-69
2022/03/03 03:34:41;;;;;;;49.50;18.40;;;;;;;-148.23;100.00;61223.13;4984983;28;20092;-69
2022/03/03 03:37:06;;;;;;;46.55;18.13;;;;;;;-148.23;100.00;61223.13;4982035;28;20467;-69
2022/03/03 03:39:31;;;;;;;47.80;18.38;;;;;;;-148.23;100.00;61223.13;4984367;28;20452;-69
2022/03/03 03:41:57;;;;;;;49.80;17.55;;;;;;;-148.23;100.00;61223.13;4980696;28;20030;-69
2022/03/03 03:44:22;;;;;;;47.28;18.80;;;;;;;-148.23;100.00;61223.13;4982333;28;20030;-69
2022/03/03 03:46:47;;;;;;;51.05;17.15;;;;;;;-148.23;100.00;61223.13;4981724;28;20426;-69
2022/03/03 03:49:12;;;;;;;54.33;19.35;;;;;;;-148.23;100.00;61223.13;5000427;28;20402;-69
2022/03/03 03:51:38;;;;;;;45.85;16.75;;;;;;;-148.23;100.00;61223.13;4981171;28;20080;-69
2022/03/03 03:54:03;;;;;;;45.25;17.65;;;;;;;-148.23;100.00;61223.13;4984556;28;20149;-69
2022/03/03 03:56:28;;;;;;;46.00;17.48;;;;;;;-148.23;100.00;61223.13;4981760;28;20033;-69
2022/03/03 03:58:54;;;;;;;46.92;18.67;;;;;;;-148.23;100.00;61223.13;4979960;28;20022;-69
2022/03/03 04:01:19;;;;;;;57.70;19.25;;;;;;;-148.23;100.00;61223.13;4981994;28;20068;-69
2022/03/03 04:03:44;;;;;;;52.45;18.33;;;;;;;-148.23;100.00;61223.13;4979889;28;20066;-69
2022/03/03 04:06:09;;;;;;;48.65;18.63;;;;;;;-148.23;100.00;61223.13;4982735;28;20033;-69
2022/03/03 04:08:36;;;;;;;52.35;16.90;;;;;;;-148.23;100.00;61223.13;4983660;28;20487;-69
2022/03/03 04:11:02;;;;;;;56.03;20.58;;;;;;;-148.23;100.00;61223.13;4984187;28;20529;-69
2022/03/03 04:13:27;;;;;;;51.85;18.15;;;;;;;-148.23;100.00;61223.13;4962205;28;20117;-69
2022/03/03 04:15:53;;;;;;;56.65;18.42;;;;;;;-148.23;100.00;61223.13;4984654;28;20030;-69
2022/03/03 04:18:19;;;;;;;48.83;18.10;;;;;;;-148.23;100.00;61223.13;4980812;28;20388;-71
2022/03/03 04:20:44;;;;;;;45.03;18.27;;;;;;;-148.23;100.00;61223.13;4981471;28;20029;-71
2022/03/03 04:23:10;;;;;;;47.80;17.42;;;;;;;-148.23;100.00;61223.13;4976649;28;20023;-70
2022/03/03 04:25:35;;;;;;;51.83;18.35;;;;;;;-148.23;100.00;61223.13;4964617;28;20093;-71
2022/03/03 04:28:02;;;;;;;46.28;16.60;;;;;;;-148.23;100.00;61223.13;4980945;28;20385;-69
2022/03/03 04:30:27;;;;;;;47.60;18.05;;;;;;;-148.23;100.00;61223.13;4966061;28;20425;-69
2022/03/03 04:32:52;;;;;;;50.20;18.05;;;;;;;-148.23;100.00;61223.13;4981735;28;20089;-69
2022/03/03 04:35:18;;;;;;;46.72;17.35;;;;;;;-148.23;100.00;61223.13;4981841;28;20033;-69
2022/03/03 04:37:43;;;;;;;48.95;18.38;;;;;;;-148.23;100.00;61223.13;4968055;28;20066;-68
2022/03/03 04:40:09;;;;;;;48.58;17.88;;;;;;;-148.23;100.00;61223.13;4964083;28;20102;-68
2022/03/03 04:42:34;;;;;;;48.53;18.30;;;;;;;-148.23;100.00;61223.13;4979986;28;20861;-68
2022/03/03 04:45:00;;;;;;;48.80;18.38;;;;;;;-148.23;100.00;61223.13;4981857;28;20077;-68
2022/03/03 04:47:25;;;;;;;44.33;18.92;;;;;;;-148.23;100.00;61223.13;4981497;28;20041;-68
2022/03/03 04:49:50;;;;;;;52.13;18.80;;;;;;;-148.23;100.00;61223.13;4981398;28;20756;-68
2022/03/03 04:52:16;;;;;;;48.05;18.98;;;;;;;-148.23;100.00;61223.13;4982455;28;21455;-68
2022/03/03 04:54:42;;;;;;;50.90;18.13;;;;;;;-148.23;100.00;61223.13;4951113;28;1052570;-68
2022/03/03 04:57:07;;;;;;;42.25;17.17;;;;;;;-148.23;100.00;61223.13;4980371;28;20057;-68
2022/03/03 04:59:33;;;;;;;46.47;18.33;;;;;;;-148.23;100.00;61223.13;4982072;28;20113;-68
2022/03/03 05:01:58;;;;;;;44.75;17.65;;;;;;;-148.23;100.00;61223.13;4983593;28;20054;-68
2022/03/03 05:04:23;;;;;;;40.03;17.10;;;;;;;-148.23;100.00;61223.13;4987602;28;20564;-68
2022/03/03 05:06:49;;;;;;;44.90;16.85;;;;;;;-148.23;100.00;61223.13;4986568;28;20424;-68
2022/03/03 05:09:15;;;;;;;54.95;19.15;;;;;;;-148.23;100.00;61223.13;4987234;28;20487;-68
2022/03/03 05:11:41;;;;;;;48.22;17.48;;;;;;;-148.23;100.00;61223.13;4986013;28;20109;-68
2022/03/03 05:14:06;;;;;;;50.53;20.33;;;;;;;-148.23;100.00;61223.13;4989092;28;20058;-68
2022/03/03 05:16:31;;;;;;;49.72;17.48;;;;;;;-148.23;100.00;61223.13;4984951;28;20063;-68
2022/03/03 05:18:57;;;;;;;45.67;17.65;;;;;;;-148.23;100.00;61223.13;4984177;28;20050;-68
2022/03/03 05:21:22;;;;;;;48.00;17.98;;;;;;;-148.23;100.00;61223.13;4986994;28;20034;-69
2022/03/03 05:23:48;;;;;;;43.80;16.70;;;;;;;-148.23;100.00;61223.13;4986260;28;20065;-68
2022/03/03 05:26:13;;;;;;;52.38;18.20;;;;;;;-148.23;100.00;61223.13;4988626;28;20365;-69
2022/03/03 05:28:39;;;;;;;43.00;17.45;;;;;;;-148.23;100.00;61223.13;4987086;28;20034;-68
2022/03/03 05:31:04;;;;;;;43.75;16.45;;;;;;;-148.23;100.00;61223.13;4970019;28;20026;-68
2022/03/03 05:33:30;;;;;;;49.35;19.15;;;;;;;-148.23;100.00;61223.13;4984336;28;20030;-69
2022/03/03 05:36:01;;;;;;;42.95;16.15;;;;;;;-148.23;100.00;61223.13;4987704;28;20758;-69
2022/03/03 05:38:29;;;;;;;43.70;16.58;;;;;;;-148.23;100.00;61223.13;4983968;28;20038;-69
2022/03/03 05:40:54;;;;;;;44.80;17.83;;;;;;;-148.23;100.00;61223.13;4985199;28;20038;-68
2022/03/03 05:43:20;;;;;;;48.08;17.58;;;;;;;-148.23;100.00;61223.13;4984225;28;20030;-69
2022/03/03 05:45:47;;;;;;;43.13;16.52;;;;;;;-148.23;100.00;61223.13;4987089;28;20460;-69
2022/03/03 05:48:15;;;;;;;53.20;17.20;;;;;;;-148.23;100.00;61223.13;4987848;28;20066;-69
2022/03/03 05:50:41;;;;;;;45.85;17.65;;;;;;;-148.23;100.00;61223.13;4986107;28;20031;-69
2022/03/03 05:53:06;;;;;;;40.63;18.05;;;;;;;-148.23;100.00;61223.13;4987222;28;20399;-69
2022/03/03 05:55:32;;;;;;;44.78;17.52;;;;;;;-148.23;100.00;61223.13;4985023;28;20030;-69
2022/03/03 05:57:59;;;;;;;50.40;20.38;;;;;;;-148.23;100.00;61223.13;4988072;28;20118;-69
2022/03/03 06:00:28;;;;;;;41.28;17.10;;;;;;;-148.23;100.00;61223.13;4982110;28;20484;-68
2022/03/03 06:02:54;;;;;;;51.53;17.83;;;;;;;-148.23;100.00;61223.13;4981260;28;20042;-69
2022/03/03 06:05:24;;;;;;;54.03;19.38;;;;;;;-148.23;100.00;61223.13;4985054;28;20027;-69
2022/03/03 06:07:52;;;;;;;48.65;17.63;;;;;;;-148.23;100.00;61223.13;4982838;28;20023;-70
2022/03/03 06:10:23;;;;;;;50.83;20.08;;;;;;;-148.23;100.00;61223.13;4987236;28;20535;-69
2022/03/03 06:12:52;;;;;;;48.75;18.60;;;;;;;-148.23;100.00;61223.13;4980256;28;20045;-69
2022/03/03 06:15:22;;;;;;;47.22;17.60;;;;;;;-148.23;100.00;61223.13;4986994;28;20117;-69
2022/03/03 06:17:49;;;;;;;50.42;18.25;;;;;;;-148.23;100.00;61223.13;4982891;28;20038;-70
2022/03/03 06:20:15;;;;;;;54.90;19.15;;;;;;;-148.23;100.00;61223.13;4985491;28;20038;-70
2022/03/03 06:22:41;;;;;;;43.47;18.63;;;;;;;-148.23;100.00;61223.13;4979076;28;20045;-69
2022/03/03 06:25:07;;;;;;;46.63;18.65;;;;;;;-148.23;100.00;61223.13;4982565;28;20042;-68
2022/03/03 06:27:32;;;;;;;48.88;18.30;;;;;;;-148.23;100.00;61223.13;4981349;28;20520;-69
2022/03/03 06:29:58;;;;;;;53.42;17.83;;;;;;;-148.23;100.00;61223.13;4964937;28;20121;-68
2022/03/03 06:32:23;;;;;;;46.85;17.80;;;;;;;-148.23;100.00;61223.13;4963950;28;20365;-71
2022/03/03 06:34:48;;;;;;;52.50;19.00;;;;;;;-148.23;100.00;61223.13;4965239;28;20036;-70
2022/03/03 06:37:14;;;;;;;52.05;19.40;;;;;;;-148.23;100.00;61223.13;4981900;28;20034;-71
2022/03/03 06:39:39;;;;;;;46.72;18.23;;;;;;;-148.23;100.00;61223.13;4998973;28;20088;-70
2022/03/03 06:42:05;;;;;;;55.05;19.45;;;;;;;-148.23;100.00;61223.13;4981464;28;20105;-70
2022/03/03 06:44:30;;;;;;;60.78;20.00;;;;;;;-148.23;100.00;61223.13;4975320;28;20117;-70
2022/03/03 06:46:55;;;;;;;53.28;19.08;;;;;;;-148.23;100.00;61223.13;4982148;28;20045;-70
2022/03/03 06:49:21;;;;;;;48.53;17.85;;;;;;;-148.23;100.00;61223.13;4980455;28;20128;-70
2022/03/03 06:51:48;;;;;;;52.08;18.58;;;;;;;-148.23;100.00;61223.13;4977428;28;20050;-68
2022/03/03 06:54:17;;;;;;;43.15;18.15;;;;;;;-148.23;100.00;61223.13;4978292;28;20516;-68
2022/03/03 06:56:54;;;;;;;57.33;19.65;;;;;;;-148.23;100.00;61223.13;4981632;28;20053;-67
2022/03/03 06:59:22;;;;;;;44.88;18.08;;;;;;;-148.23;100.00;61223.13;4972220;28;20038;-68
2022/03/03 07:01:49;;;;;;;51.90;17.88;;;;;;;-148.23;100.00;61223.13;4981772;28;20037;-68
2022/03/03 07:04:15;;;;;;;51.45;19.17;;;;;;;-148.23;100.00;61223.13;4983979;28;20026;-68
2022/03/03 07:06:41;;;;;;;55.08;19.13;;;;;;;-148.23;100.00;61223.13;4982489;28;20110;-70
2022/03/03 07:09:08;;;;;;;51.90;18.23;;;;;;;-148.23;100.00;61223.13;4982535;28;20034;-70
2022/03/03 07:11:34;;;;;;;60.10;21.35;;;;;;;-148.23;100.00;61223.13;4982271;28;20053;-68
2022/03/03 07:13:59;;;;;;;52.58;19.23;;;;;;;-148.23;100.00;61223.13;4983260;28;20460;-68
2022/03/03 07:16:39;;;;;;;56.97;19.25;;;;;;;-148.23;100.00;61223.13;4983319;28;20037;-68
2022/03/03 07:19:05;;;;;;;54.17;18.95;;;;;;;-148.23;100.00;61223.13;4983920;28;20535;-68
2022/03/03 07:21:58;;;;;;;46.67;19.25;;;;;;;-148.23;100.00;61223.13;4982169;28;20120;-68
2022/03/03 07:24:30;;;;;;;55.13;19.30;;;;;;;-148.23;100.00;61223.13;4983287;28;20460;-68
2022/03/03 07:26:59;;;;;;;46.00;19.27;;;;;;;-148.23;100.00;61223.13;4984431;28;20709;-68
2022/03/03 07:29:28;;;;;;;53.55;19.50;;;;;;;-148.23;100.00;61223.13;4980724;28;20034;-68
2022/03/03 07:31:55;;;;;;;53.95;19.92;;;;;;;-148.23;100.00;61223.13;4982249;28;20117;-68
2022/03/03 07:34:26;;;;;;;48.85;19.52;;;;;;;-148.23;100.00;61223.13;4981584;28;20140;-71
2022/03/03 07:36:56;;;;;;;47.83;19.45;;;;;;;-148.23;100.00;61223.13;4985535;28;20113;-71
2022/03/03 07:39:23;;;;;;;58.90;20.67;;;;;;;-148.23;100.00;61223.13;4982588;28;20030;-68
2022/03/03 07:41:48;;;;;;;52.65;19.88;;;;;;;-148.23;100.00;61223.13;4982647;28;20045;-69
2022/03/03 07:44:14;;;;;;;49.08;20.20;;;;;;;-148.23;100.00;61223.13;4981373;28;20022;-68
2022/03/03 07:46:39;;;;;;;54.65;19.25;;;;;;;-148.23;100.00;61223.13;4998066;28;20026;-69
2022/03/03 07:49:04;;;;;;;49.75;19.50;;;;;;;-148.23;100.00;61223.13;4983859;28;20045;-69
2022/03/03 07:51:30;;;;;;;57.70;19.33;;;;;;;-148.23;100.00;61223.13;4981210;28;20054;-68
2022/03/03 07:53:55;;;;;;;51.67;20.38;;;;;;;-148.23;100.00;61223.13;4993310;28;20038;-69
2022/03/03 07:56:25;;;;;;;56.42;24.38;;;;;;;-148.23;100.00;61223.13;4981578;28;20033;-68
2022/03/03 07:58:58;;;;;;;46.60;20.08;;;;;;;-148.23;100.00;61223.13;4983732;28;20033;-68
2022/03/03 08:01:24;;;;;;;53.10;22.23;;;;;;;-148.23;100.00;61223.13;4978853;28;20444;-69
2022/03/03 08:03:50;;;;;;;55.95;21.63;;;;;;;-148.23;100.00;61223.13;4976737;28;20049;-69
2022/03/03 08:06:17;;;;;;;56.92;22.42;;;;;;;-148.23;100.00;61223.13;4980612;28;20105;-68
2022/03/03 08:08:42;;;;;;;58.33;22.92;;;;;;;-148.23;100.00;61223.13;4981748;28;20091;-69
2022/03/03 08:11:09;;;;;;;53.50;21.83;;;;;;;-148.23;100.00;61223.13;4981541;28;20026;-69
2022/03/03 08:13:35;;;;;;;48.92;21.75;;;;;;;-148.23;100.00;61223.13;4980894;28;20125;-68
2022/03/03 08:16:02;;;;;;;62.30;20.38;;;;;;;-148.23;100.00;61223.13;4979594;28;20026;-68
2022/03/03 08:18:32;;;;;;;62.72;24.27;;;;;;;-148.23;100.00;61223.13;4976682;28;20358;-69
2022/03/03 08:21:02;;;;;;;60.63;23.75;;;;;;;-148.23;100.00;61223.13;4980255;28;20022;-69
2022/03/03 08:23:28;;;;;;;64.35;23.08;;;;;;;-148.23;100.00;61223.13;4975695;28;20446;-69
2022/03/03 08:25:55;;;;;;;73.70;25.02;;;;;;;-148.23;100.00;61223.13;4971740;28;20053;-69
2022/03/03 08:28:25;;;;;;;73.32;24.13;;;;;;;-148.23;100.00;61223.13;4981554;28;20053;-69
2022/03/03 08:31:01;;;;;;;61.35;23.15;;;;;;;-148.23;100.00;61223.13;4978913;28;20057;-68
2022/03/03 08:33:38;;;;;;;73.43;24.98;;;;;;;-148.23;100.00;61223.13;4976103;28;20437;-67
2022/03/03 08:36:08;;;;;;;63.72;25.10;;;;;;;-148.23;100.00;61223.13;4980163;28;20037;-69
2022/03/03 08:38:36;;;;;;;75.18;25.38;;;;;;;-148.23;100.00;61223.13;4981448;28;20135;-69
2022/03/03 08:41:03;;;;;;;66.07;25.38;;;;;;;-148.23;100.00;61223.13;4971745;28;20318;-69
2022/03/03 08:43:31;;;;;;;65.28;26.75;;;;;;;-148.23;100.00;61223.13;4984479;28;20033;-69
2022/03/03 08:46:02;;;;;;;69.28;26.05;;;;;;;-148.23;100.00;61223.13;4979140;28;20038;-68
2022/03/03 08:48:30;;;;;;;70.82;27.63;;;;;;;-148.23;100.00;61223.13;4979767;28;20030;-69
2022/03/03 08:50:56;;;;;;;71.50;27.95;;;;;;;-148.23;100.00;61223.13;4982672;28;20033;-69
2022/03/03 08:53:21;;;;;;;78.10;28.30;;;;;;;-148.23;100.00;61223.13;4980317;28;20428;-69
2022/03/03 08:55:46;;;;;;;66.43;26.90;;;;;;;-148.23;100.00;61223.13;4983143;28;20058;-69
2022/03/03 08:58:13;;;;;;;64.47;24.00;;;;;;;-148.23;100.00;61223.13;4978451;28;20085;-68
2022/03/03 09:00:39;;;;;;;70.25;25.90;;;;;;;-148.23;100.00;61223.13;4980169;28;20494;-68
2022/03/03 09:03:04;;;;;;;74.55;27.33;;;;;;;-148.23;100.00;61223.13;4978140;28;20030;-68
2022/03/03 09:05:29;;;;;;;67.25;25.55;;;;;;;-148.23;100.00;61223.13;4982699;28;20035;-68
2022/03/03 09:07:55;;;;;;;67.65;25.38;;;;;;;-148.23;100.00;61223.13;4980443;28;20093;-68
2022/03/03 09:10:20;;;;;;;71.55;26.38;;;;;;;-148.23;100.00;61223.13;4983073;28;20056;-69
2022/03/03 09:12:46;;;;;;;74.95;28.27;;;;;;;-148.23;100.00;61223.13;4978806;28;20062;-68
2022/03/03 09:15:12;;;;;;;73.55;27.08;;;;;;;-148.23;100.00;61223.13;4982006;28;20034;-68
2022/03/03 09:17:37;;;;;;;69.25;22.35;;;;;;;-148.23;100.00;61223.13;4978110;28;20411;-68
2022/03/03 09:20:06;;;;;;;76.53;26.73;;;;;;;-148.23;100.00;61223.13;4979229;28;20035;-68
2022/03/03 09:22:31;;;;;;;65.07;23.92;;;;;;;-148.23;100.00;61223.13;4981018;28;20368;-68
2022/03/03 09:24:56;;;;;;;71.38;27.13;;;;;;;-148.23;100.00;61223.13;4980492;28;20030;-69
2022/03/03 09:27:22;;;;;;;63.58;23.52;;;;;;;-148.23;100.00;61223.13;4975970;28;20712;-68
2022/03/03 09:29:48;;;;;;;67.63;23.98;;;;;;;-148.23;100.00;61223.13;4979735;28;20061;-68
2022/03/03 09:32:13;;;;;;;73.65;25.77;;;;;;;-148.23;100.00;61223.13;4978677;28;20392;-69
2022/03/03 09:34:39;;;;;;;71.90;26.95;;;;;;;-148.23;100.00;61223.13;4980132;28;20543;-68
2022/03/03 09:37:05;;;;;;;63.70;23.98;;;;;;;-148.23;100.00;61223.13;4982295;28;20022;-69
2022/03/03 09:39:30;;;;;;;56.95;22.33;;;;;;;-148.23;100.00;61223.13;4979876;28;20420;-68
2022/03/03 09:41:55;;;;;;;76.90;28.05;;;;;;;-148.23;100.00;61223.13;4981243;28;20057;-68
2022/03/03 09:44:25;;;;;;;72.07;23.90;;;;;;;-148.23;100.00;61223.13;4979191;28;20069;-68
2022/03/03 09:46:51;;;;;;;59.72;23.45;;;;;;;-148.23;100.00;61223.13;4982179;28;20029;-68
2022/03/03 09:49:17;;;;;;;71.20;22.92;;;;;;;-148.23;100.00;61223.13;4978722;28;20057;-68
2022/03/03 09:51:42;;;;;;;56.70;23.58;;;;;;;-148.23;100.00;61223.13;4985253;28;20026;-68
2022/03/03 09:54:08;;;;;;;66.35;23.58;;;;;;;-148.23;100.00;61223.13;4982396;28;20073;-68
2022/03/03 09:56:33;;;;;;;68.43;25.90;;;;;;;-148.23;100.00;61223.13;4983353;28;20101;-68
2022/03/03 09:58:59;;;;;;;62.03;26.70;;;;;;;-148.23;100.00;61223.13;4979798;28;20045;-69
2022/03/03 10:01:28;;;;;;;71.80;26.27;;;;;;;-148.23;100.00;61223.13;4982954;28;20034;-69
2022/03/03 10:03:54;;;;;;;57.83;21.98;;;;;;;-148.23;100.00;61223.13;4981571;28;20038;-67
2022/03/03 10:06:21;;;;;;;68.85;27.58;;;;;;;-148.23;100.00;61223.13;4981978;28;20698;-68
2022/03/03 10:08:50;;;;;;;64.82;24.40;;;;;;;-148.23;100.00;61223.13;4982749;28;20038;-68
2022/03/03 10:11:15;;;;;;;68.80;24.45;;;;;;;-148.23;100.00;61223.13;4977409;28;20033;-68
2022/03/03 10:13:52;;;;;;;65.65;23.88;;;;;;;-148.23;100.00;61223.13;4980450;28;20031;-68
2022/03/03 10:16:23;;;;;;;71.10;26.10;;;;;;;-148.23;100.00;61223.13;4981553;28;20136;-68
2022/03/03 10:19:00;;;;;;;66.18;24.45;;;;;;;-148.23;100.00;61223.13;4981174;28;20034;-68
2022/03/03 10:21:28;;;;;;;68.55;24.05;;;;;;;-148.23;100.00;61223.13;4981931;28;20030;-68
2022/03/03 10:23:53;;;;;;;65.30;22.95;;;;;;;-148.23;100.00;61223.13;4982589;28;20524;-68
2022/03/03 10:26:18;;;;;;;64.97;22.77;;;;;;;-148.23;100.00;61223.13;4982129;28;20412;-68
2022/03/03 10:28:48;;;;;;;64.75;27.75;;;;;;;-148.23;100.00;61223.13;4982874;28;20117;-68
2022/03/03 10:31:15;;;;;;;57.83;22.85;;;;;;;-148.23;100.00;61223.13;4983300;28;20072;-68
2022/03/03 10:33:45;;;;;;;68.72;25.63;;;;;;;-148.23;100.00;61223.13;4981790;28;20145;-68
2022/03/03 10:36:19;;;;;;;59.63;25.25;;;;;;;-148.23;100.00;61223.13;4983883;28;20045;-68
2022/03/03 10:38:56;;;;;;;56.20;21.27;;;;;;;-148.23;100.00;61223.13;4980318;28;20546;-68
2022/03/03 10:41:33;;;;;;;63.15;22.77;;;;;;;-148.23;100.00;61223.13;4981233;28;20045;-68
2022/03/03 10:44:01;;;;;;;65.95;23.90;;;;;;;-148.23;100.00;61223.13;4981908;28;20389;-68
2022/03/03 10:46:27;;;;;;;63.95;22.35;;;;;;;-148.23;100.00;61223.13;4980226;28;20076;-68
2022/03/03 10:48:52;;;;;;;60.58;22.95;;;;;;;-148.23;100.00;61223.13;4982737;28;20033;-68
2022/03/03 10:51:19;;;;;;;55.58;21.50;;;;;;;-148.23;100.00;61223.13;4982812;28;20472;-68